createdAt,value
2022-09-23T00:00:00.169Z,24.20
2022-09-23T00:20:00.172Z,41.20
2022-09-23T00:30:00.118Z,27.40
2022-09-23T00:40:00.160Z,16.00
2022-09-23T00:50:00.144Z,23.50
2022-09-23T01:00:00.148Z,18.50
2022-09-23T01:10:00.117Z,15.90
2022-09-23T01:20:00.252Z,16.90
2022-09-23T01:30:00.169Z,16.50
2022-09-23T01:40:00.133Z,18.10
2022-09-23T01:50:00.133Z,19.90
2022-09-23T02:00:00.206Z,17.70
2022-09-23T02:10:00.134Z,14.30
2022-09-23T02:20:00.156Z,13.90
2022-09-23T02:30:01.840Z,14.60
2022-09-23T02:40:00.369Z,16.50
2022-09-23T02:50:00.134Z,18.60
2022-09-23T03:00:00.147Z,14.20
2022-09-23T03:10:00.109Z,17.10
2022-09-23T03:20:00.191Z,16.40
2022-09-23T03:30:00.130Z,14.00
2022-09-23T03:40:00.350Z,15.60
2022-09-23T03:50:00.136Z,28.60
2022-09-23T04:10:00.179Z,17.80
2022-09-23T04:20:00.159Z,26.60
2022-09-23T04:30:00.146Z,13.50
2022-09-23T04:40:01.648Z,13.50
2022-09-23T04:50:00.213Z,11.90
2022-09-23T05:00:00.165Z,13.60
2022-09-23T05:10:00.116Z,16.60
2022-09-23T05:20:00.173Z,14.40
2022-09-23T05:30:00.168Z,13.80
2022-09-23T05:40:00.154Z,13.10
2022-09-23T05:50:00.734Z,19.40
2022-09-23T06:00:00.167Z,15.00
2022-09-23T06:10:00.251Z,20.70
2022-09-23T06:20:00.187Z,16.80
2022-09-23T06:30:00.155Z,20.50
2022-09-23T06:40:00.411Z,15.60
2022-09-23T06:50:00.142Z,13.20
2022-09-23T07:00:00.182Z,13.30
2022-09-23T07:10:00.162Z,18.00
2022-09-23T07:30:00.150Z,11.60
2022-09-23T07:40:00.175Z,12.80
2022-09-23T07:50:00.160Z,14.10
2022-09-23T08:00:00.168Z,9.90
2022-09-23T08:10:00.143Z,12.20
2022-09-23T08:20:00.947Z,9.90
2022-09-23T08:30:01.006Z,12.70
2022-09-23T08:40:01.464Z,23.30
2022-09-23T08:50:00.179Z,11.50
2022-09-23T09:10:00.136Z,12.70
2022-09-23T09:20:01.656Z,16.30
2022-09-23T09:30:00.144Z,12.00
2022-09-23T09:40:00.242Z,20.10
2022-09-23T09:50:00.130Z,11.80
2022-09-23T10:00:00.119Z,22.50
2022-09-23T10:10:05.932Z,43.80
2022-09-23T10:20:00.108Z,48.00
2022-09-23T10:30:00.090Z,35.80
2022-09-23T10:40:00.133Z,43.10
2022-09-23T10:50:00.121Z,64.10
2022-09-23T11:00:00.123Z,129.60
2022-09-23T11:10:00.119Z,96.80
2022-09-23T11:20:00.145Z,125.10
2022-09-23T11:30:00.113Z,156.90
2022-09-23T11:40:00.144Z,143.40
2022-09-23T11:50:03.314Z,270.80
2022-09-23T12:00:00.169Z,372.40
2022-09-23T12:10:00.130Z,453.80
2022-09-23T12:20:00.151Z,461.80
2022-09-23T12:30:00.108Z,248.80
2022-09-23T12:40:00.153Z,247.10
2022-09-23T12:50:00.106Z,207.90
2022-09-23T13:00:00.157Z,202.70
2022-09-23T13:10:00.144Z,155.90
2022-09-23T13:20:00.158Z,112.30
2022-09-23T13:30:00.171Z,194.70
2022-09-23T13:50:00.234Z,175.00
2022-09-23T14:00:01.492Z,113.90
2022-09-23T14:10:00.153Z,146.70
2022-09-23T14:20:00.134Z,107.40
2022-09-23T14:30:00.160Z,107.90
2022-09-23T14:40:00.217Z,104.20
2022-09-23T14:50:00.136Z,156.70
2022-09-23T15:00:00.174Z,144.70
2022-09-23T15:10:00.148Z,94.00
2022-09-23T15:30:00.107Z,97.80
2022-09-23T15:40:00.166Z,116.00
2022-09-23T15:50:00.173Z,103.30
2022-09-23T16:00:00.175Z,106.70
2022-09-23T16:10:00.134Z,107.10
2022-09-23T16:20:00.150Z,87.70
2022-09-23T16:30:00.136Z,81.40
2022-09-23T16:40:00.156Z,80.70
2022-09-23T16:50:00.173Z,69.00
2022-09-23T17:00:00.279Z,76.90
2022-09-23T17:10:00.231Z,47.30
2022-09-23T17:20:00.153Z,60.90
2022-09-23T17:30:00.141Z,101.20
2022-09-23T17:40:02.005Z,70.00
2022-09-23T17:50:00.110Z,46.60
2022-09-23T18:00:00.162Z,46.50
2022-09-23T18:10:00.181Z,21.70
2022-09-23T18:20:00.178Z,16.20
2022-09-23T18:30:00.158Z,14.90
2022-09-23T18:40:00.173Z,16.20
2022-09-23T18:50:00.200Z,33.40
2022-09-23T19:00:00.201Z,62.10
2022-09-23T19:10:00.118Z,30.60
2022-09-23T19:20:00.176Z,45.30
2022-09-23T19:30:00.145Z,28.00
2022-09-23T19:40:00.177Z,33.20
2022-09-23T19:50:02.248Z,52.40
2022-09-23T20:00:00.156Z,120.40
2022-09-23T20:10:00.146Z,19.30
2022-09-23T20:20:00.189Z,19.00
2022-09-23T20:30:01.253Z,27.30
2022-09-23T20:40:00.165Z,42.30
2022-09-23T20:50:00.136Z,31.00
2022-09-23T21:00:00.156Z,34.50
2022-09-23T21:10:00.139Z,18.30
2022-09-23T21:20:00.155Z,29.20
2022-09-23T21:30:00.149Z,37.80
2022-09-23T21:40:00.161Z,21.70
2022-09-23T21:50:00.150Z,19.30
2022-09-23T22:00:00.180Z,19.30
2022-09-23T22:10:00.163Z,11.80
2022-09-23T22:20:01.054Z,22.00
2022-09-23T22:30:00.155Z,148.50
2022-09-23T22:40:00.235Z,32.90
2022-09-23T22:50:00.205Z,14.20
2022-09-23T23:00:00.244Z,30.70
2022-09-23T23:10:00.429Z,23.00
2022-09-23T23:20:00.216Z,19.10
2022-09-23T23:30:00.145Z,22.00
2022-09-23T23:50:00.168Z,21.20
